Time;durP1;ratioP1;P1;durP2;ratioP2;P2;SDS_P1;SDS_P2;PMS_P1;PMS_P2;Temp;Humidity;BMP_temperature;BMP_pressure;BME280_temperature;BME280_humidity;BME280_pressure;Samples;Min_cycle;Max_cycle;Signal;HPM_P1;HPM_P2
2023/10/02 00:00:43;;;;;;;24.58;12.90;;;;;;;;;;5045447;28;20116;-71
2023/10/02 00:03:09;;;;;;;25.90;13.23;;;;;;;;;;5049758;28;20041;-71
2023/10/02 00:05:50;;;;;;;26.67;12.82;;;;;;;;;;5047157;28;20039;-71
2023/10/02 00:08:31;;;;;;;24.65;13.00;;;;;;;;;;5050455;28;20483;-71
2023/10/02 00:11:05;;;;;;;28.30;13.40;;;;;;;;;;5042924;28;20072;-71
2023/10/02 00:13:32;;;;;;;26.92;13.25;;;;;;;;;;5038778;28;20048;-71
2023/10/02 00:15:58;;;;;;;24.45;12.10;;;;;;;;;;5044230;28;20471;-71
2023/10/02 00:18:27;;;;;;;25.48;13.05;;;;;;;;;;5030881;28;20041;-71
2023/10/02 00:21:17;;;;;;;23.15;12.75;;;;;;;;;;5050035;28;20041;-71
2023/10/02 00:23:59;;;;;;;25.25;13.25;;;;;;;;;;5036922;28;20040;-71
2023/10/02 00:26:25;;;;;;;25.45;12.57;;;;;;;;;;5042726;28;20047;-71
2023/10/02 00:28:50;;;;;;;26.70;13.02;;;;;;;;;;5051152;28;20547;-71
2023/10/02 00:31:33;;;;;;;24.73;12.45;;;;;;;;;;5050606;28;20037;-71
2023/10/02 00:34:00;;;;;;;24.95;13.40;;;;;;;;;;5046326;28;20503;-71
2023/10/02 00:36:26;;;;;;;25.90;12.98;;;;;;;;;;5039052;28;20522;-71
2023/10/02 00:38:52;;;;;;;23.35;12.52;;;;;;;;;;5038516;28;20411;-71
2023/10/02 00:41:18;;;;;;;27.17;12.50;;;;;;;;;;5058761;22;20033;-68
2023/10/02 00:43:45;;;;;;;23.38;12.48;;;;;;;;;;5051056;28;20073;-68
2023/10/02 00:46:23;;;;;;;26.83;13.60;;;;;;;;;;5053420;28;20044;-68
2023/10/02 00:48:51;;;;;;;28.98;13.48;;;;;;;;;;5034494;28;20115;-68
2023/10/02 00:51:17;;;;;;;23.98;12.55;;;;;;;;;;5034723;28;20048;-68
2023/10/02 00:53:48;;;;;;;26.88;13.45;;;;;;;;;;5034226;28;20044;-68
2023/10/02 00:56:20;;;;;;;22.92;12.07;;;;;;;;;;5041135;28;20056;-68
2023/10/02 00:59:00;;;;;;;24.90;12.40;;;;;;;;;;5034571;28;20041;-68
2023/10/02 01:01:26;;;;;;;24.50;12.35;;;;;;;;;;5025808;28;20063;-68
2023/10/02 01:04:09;;;;;;;24.35;12.23;;;;;;;;;;5016297;28;20060;-68
2023/10/02 01:06:54;;;;;;;28.02;13.32;;;;;;;;;;5031351;28;20084;-68
2023/10/02 01:09:22;;;;;;;25.48;13.13;;;;;;;;;;5034634;28;20041;-68
2023/10/02 01:11:49;;;;;;;24.15;12.43;;;;;;;;;;5014646;28;20041;-68
2023/10/02 01:14:39;;;;;;;25.90;13.32;;;;;;;;;;5034835;28;20052;-68
2023/10/02 01:17:01;;;;;;;28.02;12.73;;;;;;;;;;5032643;28;20056;-68
2023/10/02 01:19:52;;;;;;;24.83;12.00;;;;;;;;;;5034350;28;20056;-68
2023/10/02 01:22:26;;;;;;;26.25;12.77;;;;;;;;;;5032667;28;20103;-68
2023/10/02 01:25:06;;;;;;;24.48;13.10;;;;;;;;;;5033904;28;20092;-68
2023/10/02 01:27:40;;;;;;;27.52;13.10;;;;;;;;;;5033653;28;20633;-68
2023/10/02 01:30:15;;;;;;;23.27;12.25;;;;;;;;;;5032591;28;20034;-68
2023/10/02 01:33:14;;;;;;;24.27;12.57;;;;;;;;;;5032976;28;20041;-68
2023/10/02 01:35:40;;;;;;;24.42;12.82;;;;;;;;;;5029218;28;20045;-68
2023/10/02 01:38:15;;;;;;;24.13;12.00;;;;;;;;;;5033296;28;20049;-68
2023/10/02 01:40:54;;;;;;;28.50;13.55;;;;;;;;;;5033279;28;20084;-68
2023/10/02 01:43:27;;;;;;;29.00;13.27;;;;;;;;;;5033751;28;20081;-68
2023/10/02 01:46:00;;;;;;;24.80;13.05;;;;;;;;;;5034095;28;20046;-68
2023/10/02 01:48:44;;;;;;;23.92;12.27;;;;;;;;;;5033288;28;20091;-68
2023/10/02 01:51:25;;;;;;;25.33;13.43;;;;;;;;;;5030191;28;20045;-68
2023/10/02 01:53:54;;;;;;;23.27;12.27;;;;;;;;;;5033814;28;20088;-68
2023/10/02 01:56:25;;;;;;;28.05;13.20;;;;;;;;;;5037753;28;20037;-68
2023/10/02 01:58:52;;;;;;;27.63;12.80;;;;;;;;;;5031095;28;20543;-68
2023/10/02 02:01:20;;;;;;;24.17;12.60;;;;;;;;;;5030838;28;20041;-68
2023/10/02 02:03:50;;;;;;;25.95;13.05;;;;;;;;;;5027983;28;20045;-68
2023/10/02 02:06:22;;;;;;;24.08;11.90;;;;;;;;;;5029828;28;20045;-68
2023/10/02 02:09:01;;;;;;;27.25;13.13;;;;;;;;;;5033275;28;20033;-68
2023/10/02 02:11:30;;;;;;;29.05;13.02;;;;;;;;;;5032577;28;20059;-68
2023/10/02 02:13:58;;;;;;;30.75;14.20;;;;;;;;;;5032838;28;20073;-68
2023/10/02 02:16:38;;;;;;;25.63;13.30;;;;;;;;;;5032211;28;20049;-68
2023/10/02 02:19:07;;;;;;;30.25;13.70;;;;;;;;;;5029727;28;20407;-68
2023/10/02 02:21:34;;;;;;;26.05;13.23;;;;;;;;;;5032799;28;20044;-68
2023/10/02 02:24:11;;;;;;;26.25;13.00;;;;;;;;;;5032841;28;20080;-68
2023/10/02 02:26:39;;;;;;;25.65;12.35;;;;;;;;;;5026159;28;20046;-68
2023/10/02 02:29:05;;;;;;;28.02;13.35;;;;;;;;;;5032544;28;20120;-68
2023/10/02 02:31:32;;;;;;;28.65;13.80;;;;;;;;;;5031817;28;20036;-68
2023/10/02 02:34:03;;;;;;;30.58;13.52;;;;;;;;;;5033049;28;20416;-68
2023/10/02 02:36:35;;;;;;;28.42;13.07;;;;;;;;;;5032659;28;20045;-68
2023/10/02 02:39:17;;;;;;;26.60;13.57;;;;;;;;;;5026702;28;20450;-68
2023/10/02 02:41:43;;;;;;;26.30;13.68;;;;;;;;;;5032723;28;20503;-68
2023/10/02 02:46:55;;;;;;;25.85;13.38;;;;;;;;;;5031891;28;20219;-68
2023/10/02 02:49:21;;;;;;;23.10;12.45;;;;;;;;;;5032766;28;20073;-68
2023/10/02 02:51:48;;;;;;;26.15;12.45;;;;;;;;;;5031800;28;20049;-68
2023/10/02 02:54:15;;;;;;;25.52;12.85;;;;;;;;;;5031342;28;20049;-68
2023/10/02 02:56:41;;;;;;;26.13;12.80;;;;;;;;;;5038991;28;20403;-68
2023/10/02 02:59:08;;;;;;;25.92;13.30;;;;;;;;;;5031828;28;20037;-68
2023/10/02 03:01:34;;;;;;;24.52;12.63;;;;;;;;;;5032600;28;20038;-68
2023/10/02 03:04:11;;;;;;;24.00;12.88;;;;;;;;;;5038333;28;20087;-68
2023/10/02 03:06:37;;;;;;;28.15;12.93;;;;;;;;;;5031329;28;20048;-68
2023/10/02 03:09:06;;;;;;;27.75;13.68;;;;;;;;;;5030651;28;20037;-68
2023/10/02 03:11:32;;;;;;;27.58;13.43;;;;;;;;;;5029500;28;20439;-68
2023/10/02 03:14:12;;;;;;;28.27;13.23;;;;;;;;;;5032460;28;20069;-68
2023/10/02 03:16:38;;;;;;;26.65;13.10;;;;;;;;;;5031638;28;20045;-68
2023/10/02 03:19:07;;;;;;;28.15;13.77;;;;;;;;;;5031418;28;20042;-68
2023/10/02 03:21:37;;;;;;;27.83;13.93;;;;;;;;;;5031223;28;20055;-68
2023/10/02 03:24:04;;;;;;;27.73;13.68;;;;;;;;;;5032273;28;20045;-68
2023/10/02 03:29:03;;;;;;;29.02;14.18;;;;;;;;;;5031362;28;20044;-68
2023/10/02 03:31:35;;;;;;;26.60;13.32;;;;;;;;;;5032303;28;20048;-68
2023/10/02 03:34:29;;;;;;;29.27;14.05;;;;;;;;;;5031775;28;20053;-68
2023/10/02 03:36:58;;;;;;;26.13;13.73;;;;;;;;;;5030819;28;20583;-68
2023/10/02 03:39:51;;;;;;;30.27;14.40;;;;;;;;;;5031190;28;20083;-68
2023/10/02 03:42:12;;;;;;;27.55;13.52;;;;;;;;;;5029957;28;20402;-68
2023/10/02 03:44:39;;;;;;;26.73;13.30;;;;;;;;;;5031558;28;20392;-68
2023/10/02 03:47:04;;;;;;;27.88;13.98;;;;;;;;;;5013752;28;20474;-68
2023/10/02 03:49:33;;;;;;;26.80;13.70;;;;;;;;;;5032273;28;20064;-68
2023/10/02 03:51:58;;;;;;;27.45;14.15;;;;;;;;;;5031468;28;20493;-68
2023/10/02 03:54:28;;;;;;;25.75;14.13;;;;;;;;;;5030732;28;20129;-68
2023/10/02 03:56:57;;;;;;;25.08;12.48;;;;;;;;;;5032033;28;20084;-68
2023/10/02 03:59:27;;;;;;;29.42;13.98;;;;;;;;;;5030409;28;20166;-68
2023/10/02 04:01:55;;;;;;;28.98;14.10;;;;;;;;;;5030076;28;20060;-68
2023/10/02 04:04:24;;;;;;;26.45;13.38;;;;;;;;;;5030315;28;20531;-68
2023/10/02 04:06:53;;;;;;;27.42;13.98;;;;;;;;;;5029462;28;20086;-68
2023/10/02 04:09:23;;;;;;;29.67;14.43;;;;;;;;;;5038235;28;20048;-68
2023/10/02 04:11:50;;;;;;;28.80;14.02;;;;;;;;;;5030473;28;20038;-68
2023/10/02 04:14:31;;;;;;;29.88;14.82;;;;;;;;;;5030963;28;20403;-68
2023/10/02 04:17:09;;;;;;;27.35;13.48;;;;;;;;;;5030613;28;20044;-68
2023/10/02 04:19:35;;;;;;;25.17;13.85;;;;;;;;;;5030819;28;20496;-68
2023/10/02 04:22:06;;;;;;;29.63;14.00;;;;;;;;;;5031092;28;20135;-68
2023/10/02 04:24:50;;;;;;;;;;;;;;;;;;5031681;28;20071;-68
2023/10/02 04:27:18;;;;;;;29.25;13.82;;;;;;;;;;5030274;28;19921;-68
2023/10/02 04:30:18;;;;;;;30.08;13.90;;;;;;;;;;5030976;28;20108;-68
2023/10/02 04:32:32;;;;;;;26.70;13.57;;;;;;;;;;5028763;28;20037;-68
2023/10/02 04:34:58;;;;;;;27.85;13.93;;;;;;;;;;5030881;28;20519;-68
2023/10/02 04:37:26;;;;;;;29.00;14.82;;;;;;;;;;5012226;28;20042;-68
2023/10/02 04:42:25;;;;;;;28.65;13.50;;;;;;;;;;5027667;28;20053;-68
2023/10/02 04:44:58;;;;;;;29.70;14.68;;;;;;;;;;5030764;28;20116;-68
2023/10/02 04:47:26;;;;;;;27.88;13.68;;;;;;;;;;5026019;28;20044;-68
2023/10/02 04:55:19;;;;;;;28.88;13.52;;;;;;;;;;5030879;28;20065;-67
2023/10/02 04:57:45;;;;;;;27.95;14.13;;;;;;;;;;5029478;28;20395;-67
2023/10/02 05:00:26;;;;;;;29.35;13.32;;;;;;;;;;5029101;28;20072;-67
2023/10/02 05:03:09;;;;;;;28.08;13.73;;;;;;;;;;5029201;28;20045;-67
2023/10/02 05:05:36;;;;;;;31.52;14.18;;;;;;;;;;5029818;28;20041;-67
2023/10/02 05:08:02;;;;;;;24.60;12.43;;;;;;;;;;5029856;28;20046;-67
2023/10/02 05:10:28;;;;;;;26.25;13.10;;;;;;;;;;5029961;28;20475;-67
2023/10/02 05:12:54;;;;;;;31.67;14.35;;;;;;;;;;5031133;28;20117;-67
2023/10/02 05:15:20;;;;;;;28.23;13.88;;;;;;;;;;5030903;28;20368;-67
2023/10/02 05:17:47;;;;;;;30.77;15.02;;;;;;;;;;5029656;28;20045;-67
2023/10/02 05:20:15;;;;;;;27.42;14.27;;;;;;;;;;5030059;28;20112;-67
2023/10/02 05:22:44;;;;;;;26.98;12.48;;;;;;;;;;5031227;28;20038;-67
2023/10/02 05:25:10;;;;;;;25.10;13.25;;;;;;;;;;5030484;28;20052;-67
2023/10/02 05:27:37;;;;;;;31.95;13.75;;;;;;;;;;5028243;28;20056;-67
2023/10/02 05:30:12;;;;;;;28.77;13.55;;;;;;;;;;5031335;28;20037;-67
2023/10/02 05:32:38;;;;;;;26.10;13.45;;;;;;;;;;5032516;28;20048;-67
2023/10/02 05:35:16;;;;;;;30.00;14.52;;;;;;;;;;5034376;28;20037;-67
2023/10/02 05:37:43;;;;;;;27.77;13.65;;;;;;;;;;5034395;28;20047;-67
2023/10/02 05:42:53;;;;;;;25.73;13.35;;;;;;;;;;5031683;28;20132;-67
2023/10/02 05:45:37;;;;;;;28.73;14.90;;;;;;;;;;5034333;28;20038;-67
2023/10/02 05:48:07;;;;;;;28.02;14.38;;;;;;;;;;5029641;28;20555;-67
2023/10/02 05:50:33;;;;;;;26.73;14.52;;;;;;;;;;5033949;28;20045;-67
2023/10/02 05:52:59;;;;;;;29.13;13.80;;;;;;;;;;5034588;28;20168;-67
2023/10/02 05:55:25;;;;;;;27.45;13.55;;;;;;;;;;5034738;28;20120;-67
2023/10/02 05:57:54;;;;;;;31.20;13.93;;;;;;;;;;5033100;28;20037;-67
2023/10/02 06:00:20;;;;;;;29.52;13.88;;;;;;;;;;5033889;28;20400;-67
2023/10/02 06:03:00;;;;;;;30.25;13.40;;;;;;;;;;5033581;28;20049;-67
2023/10/02 06:05:26;;;;;;;28.85;14.65;;;;;;;;;;5033046;28;20116;-67
2023/10/02 06:07:52;;;;;;;30.40;14.38;;;;;;;;;;5035135;28;20116;-67
2023/10/02 06:10:25;;;;;;;25.95;12.48;;;;;;;;;;5032463;28;20041;-67
2023/10/02 06:13:07;;;;;;;32.35;13.90;;;;;;;;;;5033486;28;20116;-67
2023/10/02 06:15:43;;;;;;;31.67;14.27;;;;;;;;;;5033166;28;20052;-67
2023/10/02 06:18:09;;;;;;;29.42;14.65;;;;;;;;;;5033037;28;20805;-67
2023/10/02 06:20:35;;;;;;;27.63;13.75;;;;;;;;;;5031950;28;20147;-67
2023/10/02 06:23:05;;;;;;;26.15;12.50;;;;;;;;;;5032062;28;20077;-67
2023/10/02 06:25:32;;;;;;;23.73;12.50;;;;;;;;;;5032006;28;20045;-68
2023/10/02 06:28:22;;;;;;;26.85;13.48;;;;;;;;;;5033318;28;20045;-68
2023/10/02 06:30:47;;;;;;;29.25;13.68;;;;;;;;;;5032490;28;20034;-68
2023/10/02 06:33:14;;;;;;;25.13;13.07;;;;;;;;;;5033128;28;20045;-67
2023/10/02 06:35:44;;;;;;;25.77;13.45;;;;;;;;;;5033549;28;20083;-67
2023/10/02 06:38:16;;;;;;;28.27;13.15;;;;;;;;;;5032555;28;20532;-67
2023/10/02 06:40:56;;;;;;;27.73;13.23;;;;;;;;;;5048180;22;20395;-70
2023/10/02 06:43:28;;;;;;;29.83;13.27;;;;;;;;;;5070937;28;20456;-71
2023/10/02 06:46:19;;;;;;;29.02;12.98;;;;;;;;;;5069832;28;20367;-71
2023/10/02 06:48:46;;;;;;;28.92;13.02;;;;;;;;;;5052200;28;20041;-71
2023/10/02 06:51:16;;;;;;;28.60;13.10;;;;;;;;;;5048084;28;20391;-71
2023/10/02 06:53:42;;;;;;;28.27;12.57;;;;;;;;;;5043996;28;20032;-71
2023/10/02 06:56:10;;;;;;;27.40;12.77;;;;;;;;;;5047571;28;20175;-71
2023/10/02 06:58:49;;;;;;;27.55;13.00;;;;;;;;;;5046946;28;20052;-71
2023/10/02 07:01:18;;;;;;;25.73;13.48;;;;;;;;;;5045615;28;20045;-71
2023/10/02 07:03:50;;;;;;;28.58;13.38;;;;;;;;;;5039655;28;20045;-71
2023/10/02 07:06:19;;;;;;;28.40;13.02;;;;;;;;;;5043681;28;20041;-71
2023/10/02 07:08:47;;;;;;;28.58;13.07;;;;;;;;;;5054533;28;20559;-71
2023/10/02 07:11:13;;;;;;;31.50;13.55;;;;;;;;;;5056521;28;20522;-71
2023/10/02 07:13:55;;;;;;;29.05;13.68;;;;;;;;;;5048332;28;20064;-71
2023/10/02 07:16:22;;;;;;;28.55;13.57;;;;;;;;;;5048093;28;20402;-71
2023/10/02 07:18:53;;;;;;;28.08;12.27;;;;;;;;;;5028478;28;20049;-71
2023/10/02 07:21:22;;;;;;;;;;;;;;;;;;5042635;28;20044;-71
2023/10/02 07:23:48;;;;;;;30.63;13.38;;;;;;;;;;5047697;28;20020;-71
2023/10/02 07:26:49;;;;;;;28.83;14.15;;;;;;;;;;5041614;28;20120;-71
2023/10/02 07:29:08;;;;;;;29.13;12.82;;;;;;;;;;5049859;28;20045;-71
2023/10/02 07:31:34;;;;;;;30.38;13.25;;;;;;;;;;5043842;28;20064;-71
2023/10/02 07:34:01;;;;;;;24.95;12.40;;;;;;;;;;5048778;28;20086;-72
2023/10/02 07:36:27;;;;;;;28.77;13.68;;;;;;;;;;5046569;28;20074;-71
2023/10/02 07:38:54;;;;;;;27.27;13.32;;;;;;;;;;5049291;28;20498;-71
2023/10/02 07:41:23;;;;;;;28.83;13.65;;;;;;;;;;5045731;28;20037;-71
2023/10/02 07:43:52;;;;;;;26.38;13.18;;;;;;;;;;5049009;28;20516;-71
2023/10/02 07:46:21;;;;;;;27.33;13.23;;;;;;;;;;5045502;28;20049;-71
2023/10/02 07:49:00;;;;;;;25.17;12.80;;;;;;;;;;5045271;28;20039;-71
2023/10/02 07:51:36;;;;;;;30.23;14.10;;;;;;;;;;5047587;28;20064;-71
2023/10/02 07:54:02;;;;;;;30.02;14.27;;;;;;;;;;5028122;28;20077;-71
2023/10/02 07:56:29;;;;;;;29.35;13.57;;;;;;;;;;5027717;28;20069;-71
2023/10/02 07:59:01;;;;;;;26.70;13.30;;;;;;;;;;5043599;28;20057;-71
2023/10/02 08:01:33;;;;;;;28.90;13.73;;;;;;;;;;5030765;28;20490;-71
2023/10/02 08:04:01;;;;;;;31.55;14.00;;;;;;;;;;5046193;28;20123;-71
2023/10/02 08:11:49;;;;;;;29.75;13.18;;;;;;;;;;5049966;28;20037;-71
2023/10/02 08:14:34;;;;;;;27.70;14.32;;;;;;;;;;5048507;28;20052;-71
2023/10/02 08:17:08;;;;;;;30.33;13.70;;;;;;;;;;5031397;28;20049;-71
2023/10/02 08:19:34;;;;;;;27.02;13.00;;;;;;;;;;5031559;28;20041;-71
2023/10/02 08:22:05;;;;;;;32.30;15.02;;;;;;;;;;5045107;28;20048;-71
2023/10/02 08:24:36;;;;;;;27.85;14.38;;;;;;;;;;5029377;28;20044;-71
2023/10/02 08:27:04;;;;;;;33.15;14.68;;;;;;;;;;5045810;28;20041;-71
2023/10/02 08:29:30;;;;;;;31.42;15.27;;;;;;;;;;5046215;28;20033;-71
2023/10/02 08:31:56;;;;;;;30.55;14.82;;;;;;;;;;5032340;28;20037;-71
2023/10/02 08:34:25;;;;;;;28.95;14.27;;;;;;;;;;5050171;28;20129;-71
2023/10/02 08:37:05;;;;;;;29.23;14.13;;;;;;;;;;5050328;28;20043;-71
2023/10/02 08:39:34;;;;;;;27.57;14.17;;;;;;;;;;5047837;28;20045;-71
2023/10/02 08:42:08;;;;;;;30.02;14.48;;;;;;;;;;5045006;28;20554;-71
2023/10/02 08:44:41;;;;;;;26.77;13.75;;;;;;;;;;5049210;28;20084;-71
2023/10/02 08:47:24;;;;;;;33.05;14.70;;;;;;;;;;5046764;28;20048;-71
2023/10/02 08:49:50;;;;;;;29.45;13.55;;;;;;;;;;5046956;28;20051;-71
2023/10/02 08:52:16;;;;;;;28.33;14.40;;;;;;;;;;5050514;28;20044;-71
2023/10/02 08:54:44;;;;;;;32.60;15.57;;;;;;;;;;5049870;28;20028;-71
2023/10/02 08:57:12;;;;;;;30.83;14.32;;;;;;;;;;5047240;28;20041;-71
2023/10/02 08:59:41;;;;;;;28.23;13.90;;;;;;;;;;5048995;28;20044;-71
2023/10/02 09:02:14;;;;;;;30.77;14.68;;;;;;;;;;5043638;28;20051;-71
2023/10/02 09:04:51;;;;;;;26.15;13.73;;;;;;;;;;5043641;28;20048;-71
2023/10/02 09:10:18;;;;;;;32.38;15.32;;;;;;;;;;5053642;28;20032;-71
2023/10/02 09:12:51;;;;;;;29.15;14.77;;;;;;;;;;5052538;28;20036;-71
2023/10/02 09:15:25;;;;;;;29.15;14.07;;;;;;;;;;5032943;28;20045;-71
2023/10/02 09:17:57;;;;;;;30.65;14.32;;;;;;;;;;5034248;28;20118;-71
2023/10/02 09:20:38;;;;;;;31.73;16.40;;;;;;;;;;5049265;28;20128;-72
2023/10/02 09:23:08;;;;;;;29.73;14.10;;;;;;;;;;5041999;28;20045;-72
2023/10/02 09:25:37;;;;;;;33.60;15.82;;;;;;;;;;5052467;28;20055;-71
2023/10/02 09:28:13;;;;;;;31.70;16.17;;;;;;;;;;5052128;28;20037;-71
2023/10/02 09:30:41;;;;;;;31.55;15.38;;;;;;;;;;5050207;28;20060;-71
2023/10/02 09:33:08;;;;;;;32.90;15.63;;;;;;;;;;5053472;28;20123;-71
2023/10/02 09:38:07;;;;;;;32.53;16.15;;;;;;;;;;5054053;28;20532;-71
2023/10/02 09:43:20;;;;;;;35.30;17.35;;;;;;;;;;5054331;28;20076;-71
2023/10/02 09:45:47;;;;;;;41.30;18.65;;;;;;;;;;5052548;28;20033;-71
2023/10/02 09:51:06;;;;;;;38.47;17.25;;;;;;;;;;5054399;28;20121;-71
2023/10/02 09:53:35;;;;;;;36.28;16.63;;;;;;;;;;5027608;28;20487;-71
2023/10/02 09:56:27;;;;;;;39.63;19.20;;;;;;;;;;5048140;28;20044;-71
2023/10/02 09:59:15;;;;;;;37.92;18.30;;;;;;;;;;5031887;28;20495;-71
2023/10/02 10:01:41;;;;;;;35.10;17.45;;;;;;;;;;5053449;28;20037;-71
2023/10/02 10:05:00;;;;;;;36.83;19.00;;;;;;;;;;5032428;28;20075;-71
2023/10/02 10:07:06;;;;;;;38.50;18.42;;;;;;;;;;5038286;28;20045;-71
2023/10/02 10:09:50;;;;;;;35.60;18.92;;;;;;;;;;5049451;28;20045;-71
2023/10/02 10:12:50;;;;;;;34.63;16.73;;;;;;;;;;5032710;28;20090;-71
2023/10/02 10:15:25;;;;;;;39.03;18.70;;;;;;;;;;5051587;28;20507;-71
2023/10/02 10:17:51;;;;;;;37.05;17.70;;;;;;;;;;5046826;28;20041;-71
2023/10/02 10:20:22;;;;;;;37.95;18.45;;;;;;;;;;5053371;28;20040;-71
2023/10/02 10:22:55;;;;;;;35.78;17.33;;;;;;;;;;5049838;28;20056;-71
2023/10/02 10:27:58;;;;;;;36.35;18.55;;;;;;;;;;5051516;28;20033;-71
2023/10/02 10:30:28;;;;;;;39.67;17.95;;;;;;;;;;5051056;28;20037;-71
2023/10/02 10:35:38;;;;;;;37.15;18.15;;;;;;;;;;5052390;28;20044;-71
2023/10/02 10:38:26;;;;;;;37.35;17.95;;;;;;;;;;5052511;28;20124;-71
2023/10/02 10:40:59;;;;;;;39.03;18.40;;;;;;;;;;5034331;28;20045;-71
2023/10/02 10:43:26;;;;;;;38.30;17.25;;;;;;;;;;5033549;28;20525;-70
2023/10/02 10:45:54;;;;;;;36.70;17.67;;;;;;;;;;5051811;28;20036;-70
2023/10/02 10:48:23;;;;;;;32.28;15.70;;;;;;;;;;5050790;28;20045;-70
2023/10/02 10:51:20;;;;;;;34.42;16.83;;;;;;;;;;5052343;28;20036;-72
2023/10/02 10:53:47;;;;;;;33.53;16.63;;;;;;;;;;5052365;28;20049;-71
2023/10/02 10:56:17;;;;;;;31.88;15.70;;;;;;;;;;5052673;28;20049;-71
2023/10/02 10:58:44;;;;;;;30.63;15.40;;;;;;;;;;5050767;28;20049;-71
2023/10/02 11:01:16;;;;;;;34.55;16.45;;;;;;;;;;5030632;28;20073;-71
2023/10/02 11:03:43;;;;;;;33.28;15.82;;;;;;;;;;5051822;28;20052;-71
2023/10/02 11:06:10;;;;;;;36.50;15.60;;;;;;;;;;5034544;28;20093;-71
2023/10/02 11:08:40;;;;;;;31.13;15.50;;;;;;;;;;5051014;28;20057;-71
2023/10/02 11:11:19;;;;;;;32.63;15.25;;;;;;;;;;5046722;28;20037;-71
2023/10/02 11:13:59;;;;;;;31.88;14.50;;;;;;;;;;5052530;28;20529;-71
2023/10/02 11:16:32;;;;;;;31.20;13.85;;;;;;;;;;5049249;28;20076;-71
2023/10/02 11:19:21;;;;;;;32.10;15.65;;;;;;;;;;5043826;28;20469;-71
2023/10/02 11:22:03;;;;;;;34.20;16.20;;;;;;;;;;5049984;28;20167;-72
2023/10/02 11:24:30;;;;;;;30.05;15.43;;;;;;;;;;5048958;28;20049;-71
2023/10/02 11:27:12;;;;;;;31.33;16.05;;;;;;;;;;5029576;28;20430;-71
2023/10/02 11:29:40;;;;;;;31.02;14.55;;;;;;;;;;5030466;28;20491;-71
2023/10/02 11:32:19;;;;;;;30.40;14.27;;;;;;;;;;5048834;28;20533;-71
2023/10/02 11:34:59;;;;;;;28.08;14.77;;;;;;;;;;5032311;28;20487;-71
2023/10/02 11:37:25;;;;;;;31.50;14.25;;;;;;;;;;5050485;28;20123;-71
2023/10/02 11:39:51;;;;;;;26.88;13.20;;;;;;;;;;5051145;28;20041;-71
2023/10/02 11:42:18;;;;;;;36.30;15.10;;;;;;;;;;5041643;28;20037;-72
2023/10/02 11:44:44;;;;;;;30.02;14.90;;;;;;;;;;5050107;28;20057;-72
2023/10/02 11:47:10;;;;;;;30.90;14.15;;;;;;;;;;5032309;28;20048;-71
2023/10/02 11:49:37;;;;;;;32.25;14.38;;;;;;;;;;5045744;28;20112;-72
2023/10/02 11:52:03;;;;;;;30.65;13.75;;;;;;;;;;5046351;28;20037;-72
2023/10/02 11:54:35;;;;;;;27.38;13.70;;;;;;;;;;5032820;28;20461;-72
2023/10/02 11:57:01;;;;;;;34.20;15.13;;;;;;;;;;5031473;28;20116;-71
2023/10/02 11:59:30;;;;;;;28.65;14.45;;;;;;;;;;5046377;28;20418;-71
2023/10/02 12:01:57;;;;;;;27.98;13.65;;;;;;;;;;5040647;28;20071;-71
2023/10/02 12:04:26;;;;;;;26.30;13.30;;;;;;;;;;5032313;28;20051;-72
2023/10/02 12:06:54;;;;;;;32.47;13.25;;;;;;;;;;5048491;28;20211;-71
2023/10/02 12:09:24;;;;;;;26.63;12.48;;;;;;;;;;5046339;28;20045;-71
2023/10/02 12:11:50;;;;;;;23.45;12.98;;;;;;;;;;5032543;28;20487;-71
2023/10/02 12:14:16;;;;;;;28.45;13.45;;;;;;;;;;5032152;28;20047;-71
2023/10/02 12:16:43;;;;;;;25.35;12.43;;;;;;;;;;5032951;28;20123;-71
2023/10/02 12:19:10;;;;;;;26.17;12.88;;;;;;;;;;5027926;28;20045;-71
2023/10/02 12:21:36;;;;;;;25.35;12.10;;;;;;;;;;5047197;28;20049;-71
2023/10/02 12:24:03;;;;;;;24.65;12.77;;;;;;;;;;5050720;28;20087;-71
2023/10/02 12:26:30;;;;;;;25.27;12.38;;;;;;;;;;5049699;28;20394;-71
2023/10/02 12:28:56;;;;;;;25.63;13.60;;;;;;;;;;5042171;28;20045;-71
2023/10/02 12:31:23;;;;;;;29.25;13.77;;;;;;;;;;5049220;28;20037;-71
2023/10/02 12:33:52;;;;;;;27.55;12.75;;;;;;;;;;5043999;28;20204;-72
2023/10/02 12:36:22;;;;;;;29.05;14.02;;;;;;;;;;5028001;28;20048;-72
2023/10/02 12:38:50;;;;;;;29.10;12.80;;;;;;;;;;5046187;28;20045;-72
2023/10/02 12:41:16;;;;;;;28.10;13.13;;;;;;;;;;5077732;22;20044;-68
2023/10/02 12:43:45;;;;;;;26.90;12.60;;;;;;;;;;5095079;28;20055;-68
2023/10/02 12:46:15;;;;;;;24.27;11.73;;;;;;;;;;5094686;28;20482;-68
2023/10/02 12:48:46;;;;;;;25.42;12.45;;;;;;;;;;5074307;28;20540;-68
2023/10/02 12:51:13;;;;;;;22.50;11.50;;;;;;;;;;5074233;28;20040;-68
2023/10/02 12:53:40;;;;;;;24.50;11.38;;;;;;;;;;5075031;28;20055;-68
2023/10/02 12:56:06;;;;;;;21.92;10.25;;;;;;;;;;5074554;28;20040;-68
2023/10/02 12:58:38;;;;;;;22.30;10.60;;;;;;;;;;5074495;28;20102;-68
2023/10/02 13:01:05;;;;;;;20.10;9.98;;;;;;;;;;5074995;28;20410;-68
2023/10/02 13:03:32;;;;;;;24.35;10.63;;;;;;;;;;5074128;28;20506;-68
2023/10/02 13:05:59;;;;;;;23.33;10.35;;;;;;;;;;5072996;28;20090;-68
2023/10/02 13:08:29;;;;;;;22.00;10.00;;;;;;;;;;5071805;28;20387;-68
2023/10/02 13:10:55;;;;;;;25.73;12.60;;;;;;;;;;5073148;28;20525;-68
2023/10/02 13:13:21;;;;;;;25.50;12.68;;;;;;;;;;5074408;28;20482;-68
2023/10/02 13:15:48;;;;;;;23.65;11.38;;;;;;;;;;5074272;28;20051;-68
2023/10/02 13:18:15;;;;;;;26.20;12.55;;;;;;;;;;5073862;28;20121;-68
2023/10/02 13:20:43;;;;;;;23.17;11.55;;;;;;;;;;5074769;28;20055;-68
2023/10/02 13:23:09;;;;;;;25.65;11.82;;;;;;;;;;5076088;28;20052;-68
2023/10/02 13:25:35;;;;;;;23.35;11.75;;;;;;;;;;5074087;28;20380;-68
2023/10/02 13:28:01;;;;;;;24.23;11.68;;;;;;;;;;5073439;28;20119;-68
2023/10/02 13:30:30;;;;;;;25.13;12.32;;;;;;;;;;5074004;28;20036;-68
2023/10/02 13:32:56;;;;;;;24.35;11.25;;;;;;;;;;5074241;28;20091;-68
2023/10/02 13:35:23;;;;;;;22.83;11.05;;;;;;;;;;5074516;28;20402;-68
2023/10/02 13:37:50;;;;;;;21.42;10.70;;;;;;;;;;5072464;28;20052;-68
2023/10/02 13:40:26;;;;;;;22.15;11.15;;;;;;;;;;5073716;28;20040;-68
2023/10/02 13:42:53;;;;;;;22.55;10.70;;;;;;;;;;5073901;28;20041;-68
2023/10/02 13:45:19;;;;;;;21.40;10.82;;;;;;;;;;5073449;28;20509;-68
2023/10/02 13:47:48;;;;;;;19.90;10.30;;;;;;;;;;5073497;28;20036;-68
2023/10/02 13:50:14;;;;;;;22.27;10.15;;;;;;;;;;5073772;28;20558;-68
2023/10/02 13:52:41;;;;;;;20.85;10.30;;;;;;;;;;5074492;28;20047;-68
2023/10/02 13:55:22;;;;;;;17.92;9.18;;;;;;;;;;5073429;28;20094;-68
2023/10/02 13:57:51;;;;;;;19.75;9.27;;;;;;;;;;5073036;28;20533;-68
2023/10/02 14:00:17;;;;;;;19.25;9.90;;;;;;;;;;5074145;28;20043;-68
2023/10/02 14:02:45;;;;;;;26.90;12.45;;;;;;;;;;5073318;28;20041;-68
2023/10/02 14:05:11;;;;;;;21.45;11.80;;;;;;;;;;5073119;28;20113;-68
2023/10/02 14:07:38;;;;;;;24.55;11.93;;;;;;;;;;5073377;28;20049;-68
2023/10/02 14:10:05;;;;;;;24.17;12.52;;;;;;;;;;5073668;28;20490;-68
2023/10/02 14:12:31;;;;;;;25.75;11.90;;;;;;;;;;5072950;28;20036;-68
2023/10/02 14:14:58;;;;;;;22.98;10.93;;;;;;;;;;5073245;28;20090;-68
2023/10/02 14:17:24;;;;;;;22.17;12.27;;;;;;;;;;5073414;28;20041;-68
2023/10/02 14:19:51;;;;;;;23.67;11.85;;;;;;;;;;5072752;28;20037;-68
2023/10/02 14:22:19;;;;;;;26.65;11.65;;;;;;;;;;5074071;28;20040;-67
2023/10/02 14:24:45;;;;;;;25.75;12.05;;;;;;;;;;5078764;28;20046;-67
2023/10/02 14:27:11;;;;;;;24.70;12.50;;;;;;;;;;5072782;28;20155;-67
2023/10/02 14:29:37;;;;;;;22.77;11.82;;;;;;;;;;5072915;28;20041;-67
2023/10/02 14:32:03;;;;;;;24.30;11.70;;;;;;;;;;5073264;28;20054;-67
2023/10/02 14:34:30;;;;;;;24.42;12.15;;;;;;;;;;5073160;28;20495;-67
2023/10/02 14:36:56;;;;;;;22.92;10.60;;;;;;;;;;5072490;28;20053;-67
2023/10/02 14:39:30;;;;;;;22.20;10.82;;;;;;;;;;5073020;28;20051;-67
2023/10/02 14:41:56;;;;;;;24.40;10.98;;;;;;;;;;5058337;28;20052;-67
2023/10/02 14:44:23;;;;;;;22.45;11.90;;;;;;;;;;5064903;28;20037;-67
2023/10/02 14:46:50;;;;;;;24.02;11.65;;;;;;;;;;5070043;28;20051;-67
2023/10/02 14:49:16;;;;;;;22.63;10.95;;;;;;;;;;5072819;28;20465;-67
2023/10/02 14:51:44;;;;;;;20.98;10.77;;;;;;;;;;5072563;28;20044;-67
2023/10/02 14:54:10;;;;;;;23.67;11.50;;;;;;;;;;5073386;28;20044;-67
2023/10/02 14:56:36;;;;;;;22.35;11.10;;;;;;;;;;5071661;28;20037;-67
2023/10/02 14:59:04;;;;;;;23.98;11.55;;;;;;;;;;5071484;28;20040;-67
2023/10/02 15:01:30;;;;;;;23.25;11.02;;;;;;;;;;5072792;28;20040;-67
2023/10/02 15:03:56;;;;;;;23.98;11.75;;;;;;;;;;5073777;28;20097;-67
2023/10/02 15:06:22;;;;;;;24.83;12.40;;;;;;;;;;5071254;28;20032;-67
2023/10/02 15:08:48;;;;;;;26.58;11.88;;;;;;;;;;5060720;28;20028;-67
2023/10/02 15:11:14;;;;;;;26.42;11.05;;;;;;;;;;5073737;28;20036;-67
2023/10/02 15:13:40;;;;;;;28.25;12.73;;;;;;;;;;5073814;28;20044;-67
2023/10/02 15:16:12;;;;;;;23.73;11.60;;;;;;;;;;5072227;28;20055;-67